createdAt,value
2019-05-30T00:02:13.257Z,46.90
2019-05-30T00:05:08.273Z,47.00
2019-05-30T00:08:04.887Z,47.10
2019-05-30T00:11:00.621Z,47.20
2019-05-30T00:13:56.627Z,47.20
2019-05-30T00:16:51.601Z,47.10
2019-05-30T00:19:47.656Z,47.20
2019-05-30T00:22:43.266Z,47.20
2019-05-30T00:25:38.286Z,47.20
2019-05-30T00:28:33.811Z,47.20
2019-05-30T00:31:29.918Z,47.20
2019-05-30T00:34:24.639Z,47.30
2019-05-30T00:37:20.547Z,47.30
2019-05-30T00:40:16.484Z,47.40
2019-05-30T00:43:12.006Z,47.50
2019-05-30T00:46:06.886Z,47.50
2019-05-30T00:49:04.423Z,47.50
2019-05-30T00:52:02.653Z,47.70
2019-05-30T00:54:58.462Z,47.70
2019-05-30T00:57:53.779Z,47.80
2019-05-30T01:00:48.568Z,47.80
2019-05-30T01:03:44.381Z,47.80
2019-05-30T01:06:41.138Z,47.90
2019-05-30T01:09:38.551Z,47.90
2019-05-30T01:12:33.751Z,47.80
2019-05-30T01:15:29.499Z,47.80
2019-05-30T01:18:24.536Z,47.80
2019-05-30T01:21:21.111Z,47.80
2019-05-30T01:24:17.023Z,47.30
2019-05-30T01:27:13.218Z,47.70
2019-05-30T01:30:10.442Z,47.80
2019-05-30T01:33:08.064Z,47.90
2019-05-30T01:36:05.833Z,47.90
2019-05-30T01:39:03.818Z,47.90
2019-05-30T01:42:01.744Z,47.80
2019-05-30T01:45:00.210Z,47.70
2019-05-30T01:48:00.133Z,47.80
2019-05-30T01:51:00.319Z,47.60
2019-05-30T01:53:58.879Z,47.40
2019-05-30T01:56:54.399Z,47.50
2019-05-30T01:59:50.018Z,47.30
2019-05-30T02:02:45.813Z,47.10
2019-05-30T02:05:45.169Z,46.90
2019-05-30T02:08:40.410Z,47.00
2019-05-30T02:11:37.875Z,47.00
2019-05-30T02:14:32.426Z,47.00
2019-05-30T02:17:28.986Z,46.90
2019-05-30T02:20:24.803Z,46.80
2019-05-30T02:23:20.182Z,46.80
2019-05-30T02:26:16.358Z,46.70
2019-05-30T02:29:11.582Z,46.70
2019-05-30T02:32:09.001Z,46.40
2019-05-30T02:35:05.382Z,46.20
2019-05-30T02:38:00.930Z,46.10
2019-05-30T02:40:56.343Z,46.10
2019-05-30T02:43:52.247Z,46.10
2019-05-30T02:46:49.449Z,46.00
2019-05-30T02:49:45.562Z,46.00
2019-05-30T02:52:41.442Z,45.80
2019-05-30T02:55:36.994Z,45.90
2019-05-30T02:58:32.927Z,45.80
2019-05-30T03:01:27.920Z,45.70
2019-05-30T03:04:23.270Z,45.70
2019-05-30T03:07:20.924Z,45.40
2019-05-30T03:10:17.309Z,45.40
2019-05-30T03:13:13.193Z,45.30
2019-05-30T03:16:11.172Z,45.60
2019-05-30T03:19:08.554Z,45.60
2019-05-30T03:22:09.498Z,45.70
2019-05-30T03:25:07.965Z,46.10
2019-05-30T03:28:05.336Z,45.70
2019-05-30T03:31:09.204Z,45.60
2019-05-30T03:34:08.296Z,45.40
2019-05-30T03:37:04.926Z,45.50
2019-05-30T03:39:59.657Z,45.60
2019-05-30T03:42:55.800Z,45.60
2019-05-30T03:45:53.160Z,45.50
2019-05-30T03:48:52.097Z,45.40
2019-05-30T03:51:48.664Z,45.40
2019-05-30T03:54:44.752Z,45.20
2019-05-30T03:57:44.152Z,45.00
2019-05-30T04:00:50.919Z,44.80
2019-05-30T04:03:54.067Z,44.80
2019-05-30T04:06:54.075Z,44.80
2019-05-30T04:09:54.060Z,44.80
2019-05-30T04:13:25.134Z,44.60
2019-05-30T04:16:20.096Z,44.20
2019-05-30T04:19:17.143Z,44.30
2019-05-30T04:22:13.011Z,44.00
2019-05-30T04:25:08.603Z,43.90
2019-05-30T04:28:04.613Z,43.70
2019-05-30T04:30:59.081Z,43.40
2019-05-30T04:33:54.161Z,43.50
2019-05-30T04:36:53.159Z,43.40
2019-05-30T04:39:45.874Z,43.40
2019-05-30T04:42:44.809Z,43.30
2019-05-30T04:45:42.826Z,43.00
2019-05-30T04:48:44.101Z,42.90
2019-05-30T04:51:39.177Z,42.60
2019-05-30T04:54:33.701Z,42.60
2019-05-30T04:57:29.085Z,42.30
2019-05-30T05:00:27.028Z,42.40
2019-05-30T05:03:44.506Z,42.30
2019-05-30T05:06:21.963Z,42.20
2019-05-30T05:09:18.252Z,42.20
2019-05-30T05:12:14.099Z,41.90
2019-05-30T05:15:14.787Z,41.30
2019-05-30T05:18:12.947Z,41.00
2019-05-30T05:21:14.649Z,41.10
2019-05-30T05:24:15.428Z,40.90
2019-05-30T05:27:19.675Z,41.10
2019-05-30T05:30:20.192Z,41.00
2019-05-30T05:33:20.566Z,40.70
2019-05-30T05:36:44.816Z,40.60
2019-05-30T05:40:39.680Z,40.70
2019-05-30T05:44:43.216Z,40.70
2019-05-30T05:48:37.573Z,40.70
2019-05-30T05:51:59.755Z,40.30
2019-05-30T05:55:21.069Z,40.10
2019-05-30T05:58:26.995Z,39.90
2019-05-30T06:01:59.987Z,39.70
2019-05-30T06:05:08.431Z,39.60
2019-05-30T06:08:55.148Z,39.60
2019-05-30T06:12:01.293Z,39.50
2019-05-30T06:14:58.045Z,39.20
2019-05-30T06:18:24.210Z,38.90
2019-05-30T06:21:28.495Z,38.60
2019-05-30T06:24:23.789Z,38.50
2019-05-30T06:27:32.549Z,38.30
2019-05-30T06:30:33.595Z,38.00
2019-05-30T06:33:29.238Z,37.70
2019-05-30T06:36:44.622Z,37.50
2019-05-30T06:40:08.612Z,37.40
2019-05-30T06:43:10.977Z,37.10
2019-05-30T06:46:20.073Z,36.60
2019-05-30T06:52:29.359Z,35.90
2019-05-30T06:55:25.231Z,35.60
2019-05-30T06:58:39.185Z,35.40
2019-05-30T07:01:21.831Z,35.30
2019-05-30T07:04:17.231Z,35.30
2019-05-30T07:07:17.464Z,35.40
2019-05-30T07:10:14.299Z,35.80
2019-05-30T07:13:13.180Z,35.30
2019-05-30T07:16:09.026Z,35.00
2019-05-30T07:19:06.401Z,34.90
2019-05-30T07:22:01.261Z,34.60
2019-05-30T07:24:58.230Z,34.80
2019-05-30T07:27:55.778Z,34.80
2019-05-30T07:30:52.724Z,34.70
2019-05-30T07:33:48.826Z,34.50
2019-05-30T07:36:44.995Z,34.30
2019-05-30T07:39:42.297Z,34.10
2019-05-30T07:42:44.697Z,33.90
2019-05-30T07:45:52.833Z,33.70
2019-05-30T07:48:43.273Z,33.70
2019-05-30T07:51:39.809Z,33.40
2019-05-30T07:54:37.054Z,33.30
2019-05-30T07:57:39.227Z,33.30
2019-05-30T08:00:35.485Z,33.10
2019-05-30T08:03:33.015Z,33.00
2019-05-30T08:06:29.893Z,32.90
2019-05-30T08:09:29.248Z,33.00
2019-05-30T08:12:27.938Z,33.00
2019-05-30T08:15:27.269Z,32.80
2019-05-30T08:18:24.624Z,32.60
2019-05-30T08:21:23.520Z,32.30
2019-05-30T08:24:22.387Z,32.00
2019-05-30T08:27:19.605Z,31.70
2019-05-30T08:30:16.737Z,31.70
2019-05-30T08:33:15.229Z,31.60
2019-05-30T08:36:12.922Z,31.20
2019-05-30T08:39:10.798Z,31.00
2019-05-30T08:42:27.887Z,30.80
2019-05-30T08:45:25.804Z,30.60
2019-05-30T08:48:25.342Z,30.00
2019-05-30T08:51:25.407Z,29.80
2019-05-30T08:54:28.372Z,29.60
2019-05-30T08:57:30.465Z,29.50
2019-05-30T09:00:32.658Z,29.40
2019-05-30T09:03:42.143Z,29.40
2019-05-30T09:06:47.747Z,29.40
2019-05-30T09:09:51.046Z,29.20
2019-05-30T09:13:00.003Z,28.80
2019-05-30T09:16:29.185Z,28.70
2019-05-30T09:19:26.279Z,28.40
2019-05-30T09:22:23.658Z,28.00
2019-05-30T09:25:21.474Z,27.60
2019-05-30T09:28:18.754Z,27.20
2019-05-30T09:31:14.846Z,27.10
2019-05-30T09:34:12.125Z,27.10
2019-05-30T09:37:10.783Z,27.10
2019-05-30T09:40:07.145Z,27.00
2019-05-30T09:43:06.327Z,27.00
2019-05-30T09:46:41.353Z,26.90
2019-05-30T09:49:41.533Z,26.80
2019-05-30T09:52:39.345Z,26.60
2019-05-30T09:55:36.002Z,26.40
2019-05-30T09:58:42.263Z,26.30
2019-05-30T10:01:38.487Z,26.30
2019-05-30T10:04:40.481Z,26.40
2019-05-30T10:07:37.971Z,26.40
2019-05-30T10:10:35.838Z,26.40
2019-05-30T10:13:32.389Z,26.50
2019-05-30T10:16:34.797Z,26.70
2019-05-30T10:19:58.198Z,26.70
2019-05-30T10:22:46.685Z,26.70
2019-05-30T10:25:55.500Z,26.60
2019-05-30T10:29:14.805Z,26.90
2019-05-30T10:32:12.667Z,26.30
2019-05-30T10:35:15.158Z,26.10
2019-05-30T10:38:19.946Z,25.60
2019-05-30T10:41:16.981Z,25.30
2019-05-30T10:44:13.721Z,25.10
2019-05-30T10:47:09.553Z,25.10
2019-05-30T10:50:07.193Z,25.00
2019-05-30T10:53:06.487Z,25.00
2019-05-30T10:56:05.700Z,25.10
2019-05-30T10:59:03.078Z,25.00
2019-05-30T11:02:08.934Z,25.20
2019-05-30T11:05:11.402Z,25.40
2019-05-30T11:08:11.646Z,25.30
2019-05-30T11:11:09.386Z,24.80
2019-05-30T11:14:07.067Z,24.60
2019-05-30T11:20:17.649Z,24.10
2019-05-30T11:23:20.178Z,23.80
2019-05-30T11:26:15.551Z,23.40
2019-05-30T11:29:11.502Z,23.50
2019-05-30T11:32:09.800Z,23.30
2019-05-30T11:35:05.969Z,23.30
2019-05-30T11:38:04.957Z,23.30
2019-05-30T11:41:03.466Z,23.10
2019-05-30T11:44:04.060Z,22.80
2019-05-30T11:47:00.177Z,22.50
2019-05-30T11:49:57.811Z,22.10
2019-05-30T11:52:55.762Z,22.10
2019-05-30T11:55:54.672Z,22.40
2019-05-30T11:58:51.975Z,22.40
2019-05-30T12:01:50.227Z,22.50
2019-05-30T12:04:46.907Z,22.40
2019-05-30T12:07:43.277Z,22.50
2019-05-30T12:10:39.318Z,22.50
2019-05-30T12:13:35.046Z,22.70
2019-05-30T12:16:30.626Z,22.80
2019-05-30T12:19:30.309Z,22.90
2019-05-30T12:22:28.033Z,23.40
2019-05-30T12:25:25.052Z,23.40
2019-05-30T12:28:21.859Z,23.60
2019-05-30T12:31:22.544Z,23.70
2019-05-30T12:34:27.340Z,23.90
2019-05-30T12:37:26.206Z,24.20
2019-05-30T12:40:24.447Z,24.60
2019-05-30T12:43:21.013Z,25.00
2019-05-30T12:46:17.260Z,25.40
2019-05-30T12:49:15.109Z,25.60
2019-05-30T12:52:13.117Z,25.80
2019-05-30T12:55:09.243Z,26.00
2019-05-30T12:58:05.525Z,26.10
2019-05-30T13:01:03.318Z,26.20
2019-05-30T13:03:58.922Z,26.40
2019-05-30T13:06:56.456Z,26.50
2019-05-30T13:09:53.255Z,26.60
2019-05-30T13:12:50.325Z,26.80
2019-05-30T13:15:46.710Z,26.90
2019-05-30T13:18:42.510Z,27.00
2019-05-30T13:21:39.118Z,27.00
2019-05-30T13:24:33.424Z,27.10
2019-05-30T13:27:28.167Z,27.30
2019-05-30T13:30:24.944Z,27.40
2019-05-30T13:33:23.393Z,27.60
2019-05-30T13:36:19.961Z,27.70
2019-05-30T13:39:16.450Z,27.80
